createdAt,value
2019-02-18T00:01:34.499Z,8.47
2019-02-18T00:04:08.361Z,7.17
2019-02-18T00:06:43.008Z,8.17
2019-02-18T00:09:16.748Z,7.23
2019-02-18T00:11:50.478Z,7.20
2019-02-18T00:14:24.246Z,7.00
2019-02-18T00:16:57.961Z,7.50
2019-02-18T00:19:31.650Z,7.20
2019-02-18T00:22:05.373Z,6.87
2019-02-18T00:24:39.180Z,7.40
2019-02-18T00:27:13.673Z,7.10
2019-02-18T00:29:48.212Z,7.67
2019-02-18T00:32:22.038Z,7.67
2019-02-18T00:34:55.875Z,7.83
2019-02-18T00:37:29.708Z,7.80
2019-02-18T00:40:03.609Z,8.10
2019-02-18T00:42:37.332Z,7.50
2019-02-18T00:45:10.977Z,7.37
2019-02-18T00:47:44.849Z,8.23
2019-02-18T00:50:18.655Z,7.33
2019-02-18T00:52:52.344Z,7.73
2019-02-18T00:55:26.110Z,8.63
2019-02-18T00:57:59.818Z,7.30
2019-02-18T01:00:33.608Z,7.27
2019-02-18T01:03:07.570Z,6.63
2019-02-18T01:05:42.030Z,7.33
2019-02-18T01:08:15.781Z,6.87
2019-02-18T01:10:49.372Z,7.20
2019-02-18T01:13:23.185Z,7.43
2019-02-18T01:15:56.969Z,7.30
2019-02-18T01:18:30.842Z,7.70
2019-02-18T01:21:04.477Z,6.73
2019-02-18T01:23:38.092Z,6.70
2019-02-18T01:26:11.889Z,8.07
2019-02-18T01:28:45.725Z,7.13
2019-02-18T01:31:19.549Z,7.90
2019-02-18T01:33:53.447Z,7.53
2019-02-18T01:36:27.280Z,7.20
2019-02-18T01:39:01.005Z,7.43
2019-02-18T01:41:35.489Z,6.40
2019-02-18T01:44:10.033Z,6.93
2019-02-18T01:46:43.774Z,7.40
2019-02-18T01:49:17.489Z,6.37
2019-02-18T01:51:51.252Z,7.00
2019-02-18T01:54:26.020Z,7.67
2019-02-18T01:56:59.641Z,7.57
2019-02-18T01:59:33.513Z,7.17
2019-02-18T02:02:07.337Z,7.43
2019-02-18T02:04:41.709Z,6.37
2019-02-18T02:07:15.519Z,7.37
2019-02-18T02:09:49.257Z,6.67
2019-02-18T02:12:23.835Z,6.97
2019-02-18T02:14:57.589Z,6.67
2019-02-18T02:17:31.263Z,6.77
2019-02-18T02:20:05.088Z,6.37
2019-02-18T02:22:39.556Z,6.00
2019-02-18T02:25:13.272Z,7.53
2019-02-18T02:27:46.861Z,7.17
2019-02-18T02:30:21.308Z,6.53
2019-02-18T02:32:55.077Z,6.87
2019-02-18T02:35:28.906Z,6.33
2019-02-18T02:38:07.602Z,6.87
2019-02-18T02:40:36.705Z,6.67
2019-02-18T02:43:10.429Z,6.27
2019-02-18T02:45:44.929Z,6.43
2019-02-18T02:48:19.133Z,6.10
2019-02-18T02:50:53.982Z,6.63
2019-02-18T02:53:28.022Z,6.70
2019-02-18T02:56:01.926Z,6.23
2019-02-18T02:58:35.760Z,6.30
2019-02-18T03:01:09.931Z,6.17
2019-02-18T03:03:43.542Z,6.03
2019-02-18T03:06:17.114Z,5.63
2019-02-18T03:08:51.071Z,6.17
2019-02-18T03:11:25.014Z,7.00
2019-02-18T03:14:00.071Z,6.17
2019-02-18T03:16:33.956Z,6.83
2019-02-18T03:19:08.713Z,6.20
2019-02-18T03:21:42.420Z,6.30
2019-02-18T03:24:17.254Z,6.63
2019-02-18T03:26:50.871Z,6.73
2019-02-18T03:32:44.638Z,9.73
2019-02-18T03:35:19.133Z,6.87
2019-02-18T03:37:52.760Z,6.60
2019-02-18T03:40:26.325Z,6.43
2019-02-18T03:43:00.668Z,7.57
2019-02-18T03:45:34.563Z,6.83
2019-02-18T03:48:08.305Z,6.00
2019-02-18T03:50:42.040Z,7.27
2019-02-18T03:53:15.785Z,5.90
2019-02-18T03:55:49.421Z,6.30
2019-02-18T03:58:22.965Z,6.27
2019-02-18T04:00:56.738Z,5.90
2019-02-18T04:03:31.135Z,6.23
2019-02-18T04:06:04.701Z,6.50
2019-02-18T04:08:43.032Z,6.53
2019-02-18T04:11:12.109Z,6.93
2019-02-18T04:13:46.030Z,6.73
2019-02-18T04:16:19.832Z,5.73
2019-02-18T04:18:53.556Z,6.27
2019-02-18T04:21:27.257Z,7.03
2019-02-18T04:24:01.119Z,6.47
2019-02-18T04:26:34.893Z,6.37
2019-02-18T04:29:08.656Z,6.67
2019-02-18T04:31:43.338Z,6.27
2019-02-18T04:34:17.103Z,5.43
2019-02-18T04:36:51.664Z,6.17
2019-02-18T04:39:25.408Z,6.13
2019-02-18T04:42:00.010Z,6.40
2019-02-18T04:44:34.527Z,6.40
2019-02-18T04:47:08.281Z,5.93
2019-02-18T04:49:42.761Z,6.37
2019-02-18T04:52:16.422Z,6.83
2019-02-18T04:54:50.066Z,6.80
2019-02-18T04:57:23.805Z,6.80
2019-02-18T04:59:57.473Z,6.10
2019-02-18T05:02:31.161Z,7.60
2019-02-18T05:05:08.350Z,7.27
2019-02-18T05:07:42.077Z,6.67
2019-02-18T05:10:16.687Z,5.70
2019-02-18T05:12:51.191Z,7.23
2019-02-18T05:15:24.918Z,6.67
2019-02-18T05:17:58.535Z,6.80
2019-02-18T05:20:32.305Z,6.63
2019-02-18T05:23:06.961Z,7.20
2019-02-18T05:25:41.464Z,6.90
2019-02-18T05:28:15.982Z,6.70
2019-02-18T05:30:49.693Z,6.77
2019-02-18T05:33:23.305Z,7.13
2019-02-18T05:35:57.086Z,7.83
2019-02-18T05:38:30.798Z,7.57
2019-02-18T05:41:04.674Z,6.80
2019-02-18T05:43:38.433Z,7.07
2019-02-18T05:46:12.237Z,7.27
2019-02-18T05:48:46.037Z,7.13
2019-02-18T05:51:19.752Z,7.03
2019-02-18T05:53:53.443Z,7.13
2019-02-18T05:56:27.312Z,6.80
2019-02-18T05:59:01.065Z,7.67
2019-02-18T06:01:34.842Z,6.67
2019-02-18T06:04:08.724Z,7.60
2019-02-18T06:06:42.479Z,7.40
2019-02-18T06:09:16.274Z,7.17
2019-02-18T06:11:50.812Z,7.70
2019-02-18T17:24:40.336Z,4.33
2019-02-18T17:27:14.030Z,4.27
2019-02-18T17:29:47.610Z,4.43
2019-02-18T17:32:21.216Z,5.03
2019-02-18T17:34:55.012Z,5.17
2019-02-18T17:37:28.810Z,5.33
2019-02-18T17:40:02.536Z,4.67
2019-02-18T17:42:36.392Z,5.93
2019-02-18T17:45:12.893Z,5.63
2019-02-18T17:47:46.553Z,5.20
2019-02-18T17:50:20.276Z,6.20
2019-02-18T17:52:55.314Z,5.40
2019-02-18T17:55:29.913Z,5.63
2019-02-18T17:58:03.636Z,4.87
2019-02-18T18:00:38.145Z,4.70
2019-02-18T18:03:12.733Z,4.90
2019-02-18T18:05:46.510Z,4.87
2019-02-18T18:08:20.373Z,4.80
2019-02-18T18:10:54.190Z,4.73
2019-02-18T18:13:28.662Z,5.67
2019-02-18T18:16:02.464Z,4.97
2019-02-18T18:18:36.215Z,5.40
2019-02-18T18:21:09.985Z,5.50
2019-02-18T18:23:43.820Z,5.03
2019-02-18T18:26:18.383Z,4.93
2019-02-18T18:28:52.077Z,5.23
2019-02-18T18:31:26.064Z,5.90
2019-02-18T18:33:59.942Z,6.13
2019-02-18T18:36:33.639Z,6.07
2019-02-18T18:39:07.472Z,6.07
2019-02-18T18:41:41.297Z,5.73
2019-02-18T18:44:15.037Z,6.03
2019-02-18T18:46:48.700Z,5.63
2019-02-18T18:49:22.361Z,6.03
2019-02-18T18:51:56.855Z,6.27
2019-02-18T18:54:31.357Z,6.20
2019-02-18T18:57:05.872Z,5.97
2019-02-18T18:59:39.592Z,5.90
2019-02-18T19:02:13.305Z,5.67
2019-02-18T19:04:47.126Z,5.90
2019-02-18T19:07:21.612Z,5.37
2019-02-18T19:09:56.125Z,5.87
2019-02-18T19:12:29.849Z,6.17
2019-02-18T19:15:03.646Z,6.10
2019-02-18T19:17:37.400Z,6.20
2019-02-18T19:20:11.683Z,6.47
2019-02-18T19:22:44.843Z,6.70
2019-02-18T19:25:18.659Z,7.13
2019-02-18T19:27:52.420Z,6.70
2019-02-18T19:30:30.073Z,6.60
2019-02-18T19:33:03.794Z,6.50
2019-02-18T19:35:37.600Z,6.63
2019-02-18T19:38:11.424Z,6.97
2019-02-18T19:40:45.057Z,7.27
2019-02-18T19:43:18.933Z,7.53
2019-02-18T19:45:53.409Z,7.10
2019-02-18T19:48:27.968Z,7.57
2019-02-18T19:51:01.772Z,7.63
2019-02-18T19:53:35.552Z,6.90
2019-02-18T19:56:09.310Z,6.90
2019-02-18T19:58:42.966Z,7.23
2019-02-18T20:01:16.752Z,7.07
2019-02-18T20:03:51.184Z,7.33
2019-02-18T20:06:25.726Z,6.50
2019-02-18T20:08:59.489Z,6.87
2019-02-18T20:11:35.893Z,6.83
2019-02-18T20:14:24.489Z,6.90
2019-02-18T20:16:58.187Z,6.80
2019-02-18T20:19:31.860Z,6.30
2019-02-18T20:22:05.666Z,7.03
2019-02-18T20:24:40.181Z,6.73
2019-02-18T20:27:14.683Z,6.20
2019-02-18T20:29:48.416Z,6.53
2019-02-18T20:32:22.124Z,6.70
2019-02-18T20:34:55.807Z,6.67
2019-02-18T20:37:29.533Z,6.47
2019-02-18T20:40:03.512Z,6.70
2019-02-18T20:42:37.201Z,7.17
2019-02-18T20:45:10.968Z,7.17
2019-02-18T20:47:44.624Z,7.27
2019-02-18T20:50:18.404Z,8.13
2019-02-18T20:52:52.844Z,8.50
2019-02-18T20:55:27.517Z,8.13
2019-02-18T20:58:01.228Z,8.17
2019-02-18T21:00:35.100Z,7.03
2019-02-18T21:03:08.692Z,7.83
2019-02-18T21:05:43.329Z,7.27
2019-02-18T21:08:17.098Z,6.43
2019-02-18T21:10:51.548Z,6.77
2019-02-18T21:13:25.304Z,6.17
2019-02-18T21:15:59.889Z,6.57
2019-02-18T21:18:33.617Z,6.30
2019-02-18T21:21:07.429Z,6.93
2019-02-18T21:23:42.030Z,7.03
2019-02-18T21:26:16.609Z,6.47
2019-02-18T21:28:50.290Z,6.07
2019-02-18T21:31:24.768Z,5.63
2019-02-18T21:33:58.484Z,6.47
2019-02-18T21:36:33.108Z,5.47
2019-02-18T21:39:06.904Z,5.73
2019-02-18T21:41:41.440Z,6.37
2019-02-18T21:44:24.743Z,5.77
2019-02-18T21:46:50.190Z,5.57
2019-02-18T21:49:24.091Z,6.20
2019-02-18T21:51:57.957Z,6.33
2019-02-18T21:54:31.762Z,5.80
2019-02-18T21:57:05.412Z,5.57
2019-02-18T21:59:39.248Z,6.07
2019-02-18T22:02:13.721Z,5.23
2019-02-18T22:04:48.228Z,5.43
2019-02-18T22:07:22.015Z,5.67
2019-02-18T22:09:55.857Z,4.83
2019-02-18T22:12:30.509Z,4.60
2019-02-18T22:15:04.225Z,5.27
2019-02-18T22:17:37.881Z,4.87
2019-02-18T22:20:11.596Z,4.70
2019-02-18T22:22:46.098Z,4.37
2019-02-18T22:25:19.874Z,4.73
2019-02-18T22:27:53.849Z,5.27
2019-02-18T22:30:27.669Z,4.90
2019-02-18T22:33:01.436Z,5.27
2019-02-18T22:35:35.144Z,4.43
2019-02-18T22:38:08.821Z,4.67
2019-02-18T22:40:43.369Z,4.40
2019-02-18T22:43:17.108Z,4.90
2019-02-18T22:45:50.868Z,4.27
2019-02-18T22:48:25.409Z,4.10
2019-02-18T22:50:59.148Z,3.57
2019-02-18T22:53:32.916Z,4.80
2019-02-18T22:56:06.540Z,4.27
2019-02-18T22:58:41.173Z,4.37
2019-02-18T23:01:14.862Z,4.17
2019-02-18T23:03:49.436Z,4.27
2019-02-18T23:06:23.112Z,4.13
2019-02-18T23:08:57.013Z,4.37
2019-02-18T23:11:30.708Z,4.10
2019-02-18T23:14:04.478Z,4.70
2019-02-18T23:16:39.018Z,4.50
2019-02-18T23:19:13.530Z,4.70
2019-02-18T23:21:47.271Z,4.37
2019-02-18T23:24:21.080Z,5.10
2019-02-18T23:26:55.565Z,5.17
2019-02-18T23:29:29.378Z,4.87
2019-02-18T23:32:03.051Z,4.53
2019-02-18T23:34:36.792Z,4.57
2019-02-18T23:37:10.558Z,4.47
2019-02-18T23:39:44.373Z,4.93
2019-02-18T23:42:18.160Z,5.20
2019-02-18T23:44:59.061Z,4.83
2019-02-18T23:47:26.540Z,5.03
2019-02-18T23:50:00.427Z,5.43
2019-02-18T23:52:34.237Z,5.10
2019-02-18T23:55:08.060Z,5.07
2019-02-18T23:57:42.380Z,4.77
